Time;durP1;ratioP1;P1;durP2;ratioP2;P2;SDS_P1;SDS_P2;PMS_P1;PMS_P2;Temp;Humidity;BMP_temperature;BMP_pressure;BME280_temperature;BME280_humidity;BME280_pressure;Samples;Min_cycle;Max_cycle;Signal;HPM_P1;HPM_P2
2023/11/09 00:00:54;;;;;;;;;9.00;9.00;;;;;13.54;100.00;98736.81;6180184;28;97146;-64
2023/11/09 00:03:57;;;;;;;;;9.20;8.80;;;;;13.53;100.00;98743.31;6156402;28;96792;-63
2023/11/09 00:07:00;;;;;;;;;12.00;12.00;;;;;13.49;100.00;98742.13;6120304;28;100001;-64
2023/11/09 00:10:05;;;;;;;;;9.00;8.60;;;;;13.45;100.00;98735.56;6158336;28;97114;-64
2023/11/09 00:13:10;;;;;;;;;11.20;10.20;;;;;13.36;100.00;98737.84;6161612;28;96799;-65
2023/11/09 00:16:13;;;;;;;;;11.00;11.00;;;;;13.34;100.00;98734.56;6139174;28;96669;-64
2023/11/09 00:19:17;;;;;;;;;10.20;10.00;;;;;13.33;100.00;98737.53;6141489;28;96788;-64
2023/11/09 00:22:20;;;;;;;;;9.00;9.00;;;;;13.27;100.00;98738.47;6139895;28;96298;-64
2023/11/09 00:25:24;;;;;;;;;9.40;9.00;;;;;13.25;100.00;98744.13;6140276;28;96342;-64
2023/11/09 00:28:28;;;;;;;;;11.00;10.00;;;;;13.22;100.00;98730.25;6138626;28;97066;-65
2023/11/09 00:31:32;;;;;;;;;9.50;8.50;;;;;13.16;100.00;98734.75;6155186;28;96268;-64
2023/11/09 00:34:35;;;;;;;;;10.00;8.00;;;;;13.11;100.00;98728.38;6122142;28;97734;-64
2023/11/09 00:37:39;;;;;;;;;8.00;7.60;;;;;13.07;100.00;98740.75;6137948;28;96447;-64
2023/11/09 00:40:42;;;;;;;;;9.00;9.00;;;;;13.03;100.00;98733.16;6153996;28;96718;-64
2023/11/09 00:43:47;;;;;;;;;6.67;6.67;;;;;13.02;100.00;98736.91;6164311;28;96461;-63
2023/11/09 00:46:50;;;;;;;;;7.60;7.60;;;;;13.00;100.00;98740.91;6179258;28;96349;-64
2023/11/09 00:49:54;;;;;;;;;9.00;8.00;;;;;12.94;100.00;98734.59;6163355;28;96333;-64
2023/11/09 00:52:57;;;;;;;;;7.20;7.20;;;;;12.90;100.00;98732.59;6164525;28;96870;-63
2023/11/09 00:56:00;;;;;;;;;8.75;8.00;;;;;12.85;100.00;98729.81;6162371;28;96878;-64
2023/11/09 00:59:06;;;;;;;;;9.00;9.00;;;;;12.81;100.00;98726.72;6145242;28;98782;-64
2023/11/09 01:02:09;;;;;;;;;11.60;11.00;;;;;12.78;100.00;98734.50;6163331;28;96424;-64
2023/11/09 01:05:13;;;;;;;;;9.00;9.00;;;;;12.71;100.00;98740.03;6179206;28;97064;-64
2023/11/09 01:08:16;;;;;;;;;6.00;6.00;;;;;12.69;100.00;98736.78;6145327;28;97395;-63
2023/11/09 01:11:22;;;;;;;;;7.00;6.60;;;;;12.64;100.00;98727.72;6139756;28;96429;-63
2023/11/09 01:14:27;;;;;;;;;8.00;8.00;;;;;12.61;100.00;98725.50;6161380;28;96996;-64
2023/11/09 01:17:30;;;;;;;;;8.00;7.00;;;;;12.56;100.00;98729.72;6162267;28;98433;-63
2023/11/09 01:20:35;;;;;;;;;7.20;7.00;;;;;12.45;100.00;98722.47;6162633;28;97269;-64
2023/11/09 01:23:38;;;;;;;;;10.25;9.25;;;;;12.39;100.00;98718.00;6162515;28;96382;-64
2023/11/09 01:26:41;;;;;;;;;9.00;9.00;;;;;12.38;100.00;98727.19;6162931;28;96759;-61
2023/11/09 01:29:46;;;;;;;;;5.00;4.60;;;;;12.38;100.00;98720.94;6145920;28;98476;-61
2023/11/09 01:32:50;;;;;;;;;6.00;6.00;;;;;12.34;100.00;98728.72;6163902;28;96847;-62
2023/11/09 01:35:54;;;;;;;;;7.00;5.20;;;;;12.33;100.00;98723.53;6162357;28;96610;-60
2023/11/09 01:38:57;;;;;;;;;6.00;6.00;;;;;12.28;100.00;98716.13;6157495;28;96318;-61
2023/11/09 01:42:01;;;;;;;;;7.00;6.60;;;;;12.23;100.00;98705.22;6156798;28;96405;-62
2023/11/09 01:45:07;;;;;;;;;6.00;6.00;;;;;12.24;100.00;98701.47;6146296;28;96390;-61
2023/11/09 01:48:11;;;;;;;;;5.00;5.00;;;;;12.22;100.00;98708.97;6178341;28;96327;-61
2023/11/09 01:51:16;;;;;;;;;6.00;6.00;;;;;12.23;100.00;98712.50;6162853;28;96505;-61
2023/11/09 01:54:20;;;;;;;;;7.00;6.50;;;;;12.19;100.00;98709.47;6162432;28;96692;-61
2023/11/09 01:57:25;;;;;;;;;4.00;4.00;;;;;12.20;100.00;98711.09;6162597;28;97482;-61
2023/11/09 02:00:30;;;;;;;;;8.60;8.00;;;;;12.19;100.00;98714.03;6162906;28;96863;-61
2023/11/09 02:03:34;;;;;;;;;5.60;5.00;;;;;12.17;100.00;98705.38;6184410;22;97484;-61
2023/11/09 02:06:39;;;;;;;;;7.40;7.00;;;;;12.13;100.00;98705.81;6193013;28;96359;-62
2023/11/09 02:09:44;;;;;;;;;7.00;7.00;;;;;12.08;100.00;98697.59;6187865;28;96735;-62
2023/11/09 02:12:49;;;;;;;;;5.25;5.25;;;;;12.01;100.00;98698.78;6181717;28;96343;-62
2023/11/09 02:15:55;;;;;;;;;4.20;4.20;;;;;11.99;100.00;98701.72;6206511;28;98445;-60
2023/11/09 02:18:59;;;;;;;;;6.00;6.00;;;;;11.97;100.00;98705.72;6211102;28;96277;-61
2023/11/09 02:22:04;;;;;;;;;6.00;5.40;;;;;11.98;100.00;98701.94;6232248;28;96312;-60
2023/11/09 02:25:10;;;;;;;;;5.00;5.00;;;;;11.97;100.00;98698.41;6216560;28;96896;-61
2023/11/09 02:28:14;;;;;;;;;5.00;5.00;;;;;11.96;100.00;98712.19;6216858;28;96963;-60
2023/11/09 02:31:17;;;;;;;;;5.80;5.80;;;;;11.93;100.00;98707.22;6198901;28;96510;-60
2023/11/09 02:34:23;;;;;;;;;6.75;5.00;;;;;11.87;100.00;98697.38;6196180;28;96361;-61
2023/11/09 02:37:28;;;;;;;;;7.40;6.40;;;;;11.90;100.00;98705.81;6198790;28;96411;-66
2023/11/09 02:40:33;;;;;;;;;5.00;5.00;;;;;11.93;100.00;98697.25;6211579;28;96716;-66
2023/11/09 02:43:40;;;;;;;;;5.00;5.00;;;;;11.93;100.00;98699.94;6198205;28;96647;-65
2023/11/09 02:46:44;;;;;;;;;5.40;5.00;;;;;11.94;100.00;98698.06;6215967;28;96219;-65
2023/11/09 02:49:47;;;;;;;;;7.00;7.00;;;;;11.96;100.00;98696.78;6175541;28;98627;-65
2023/11/09 02:52:50;;;;;;;;;6.00;6.00;;;;;11.90;100.00;98695.03;6177525;28;96856;-65
2023/11/09 02:55:55;;;;;;;;;5.00;5.00;;;;;11.86;100.00;98695.72;6212195;28;96351;-65
2023/11/09 02:58:58;;;;;;;;;5.00;5.00;;;;;11.86;100.00;98685.75;6193454;28;96361;-65
2023/11/09 03:02:01;;;;;;;;;6.00;6.00;;;;;11.84;100.00;98679.75;6196290;28;97266;-66
2023/11/09 03:05:05;;;;;;;;;7.00;7.00;;;;;11.84;100.00;98687.03;6214366;28;96375;-65
2023/11/09 03:08:09;;;;;;;;;5.40;5.40;;;;;11.76;100.00;98688.22;6214661;28;96686;-65
2023/11/09 03:11:17;;;;;;;;;6.00;6.00;;;;;11.70;100.00;98687.22;6215368;28;96336;-66
2023/11/09 03:14:20;;;;;;;;;5.00;5.00;;;;;11.61;100.00;98691.34;6196649;28;96734;-65
2023/11/09 03:17:24;;;;;;;;;3.60;3.60;;;;;11.50;100.00;98684.03;6214781;28;96379;-65
2023/11/09 03:20:27;;;;;;;;;6.00;4.00;;;;;11.42;100.00;98683.56;6207240;28;97857;-65
2023/11/09 03:23:30;;;;;;;;;4.00;4.00;;;;;11.36;100.00;98682.59;6215546;28;96299;-65
2023/11/09 03:26:37;;;;;;;;;4.00;3.00;;;;;11.31;100.00;98679.78;6179461;28;96681;-63
2023/11/09 03:29:40;;;;;;;;;3.00;3.00;;;;;11.28;100.00;98667.56;6193887;28;96377;-64
2023/11/09 03:32:43;;;;;;;;;5.00;5.00;;;;;11.21;100.00;98674.94;6210479;27;98850;-62
2023/11/09 03:35:47;;;;;;;;;4.00;4.00;;;;;11.22;100.00;98673.06;6194183;28;96504;-64
2023/11/09 03:38:51;;;;;;;;;4.20;3.80;;;;;11.22;100.00;98668.50;6213306;28;96320;-63
2023/11/09 03:41:56;;;;;;;;;5.00;5.00;;;;;11.25;100.00;98672.59;6196388;28;96358;-63
2023/11/09 03:45:00;;;;;;;;;4.00;4.00;;;;;11.25;100.00;98673.41;6180502;28;96900;-68
2023/11/09 03:48:03;;;;;;;;;4.25;4.25;;;;;11.24;100.00;98677.16;6215010;28;96260;-67
2023/11/09 03:51:07;;;;;;;;;4.00;4.00;;;;;11.19;100.00;98673.53;6214020;28;96452;-67
2023/11/09 03:54:10;;;;;;;;;6.40;5.40;;;;;11.11;100.00;98676.53;6214177;28;96312;-67
2023/11/09 03:57:15;;;;;;;;;7.00;7.00;;;;;10.94;100.00;98673.69;6213777;28;96282;-68
2023/11/09 04:00:18;;;;;;;;;4.80;4.80;;;;;10.80;100.00;98672.19;6212797;28;96513;-68
2023/11/09 04:03:22;;;;;;;;;4.60;4.60;;;;;10.66;100.00;98666.16;6223329;28;98685;-68
2023/11/09 04:06:25;;;;;;;;;6.40;6.40;;;;;10.59;100.00;98672.72;6212066;28;96257;-68
2023/11/09 04:09:29;;;;;;;;;3.50;3.25;;;;;10.42;100.00;98665.22;6212031;28;96836;-67
2023/11/09 04:12:33;;;;;;;;;5.00;4.80;;;;;10.40;100.00;98674.59;6175895;28;97208;-67
2023/11/09 04:15:37;;;;;;;;;3.00;3.00;;;;;10.31;100.00;98665.19;6174036;28;97267;-67
2023/11/09 04:18:40;;;;;;;;;5.00;4.25;;;;;10.34;100.00;98672.81;6207529;28;96382;-67
2023/11/09 04:21:44;;;;;;;;;5.00;5.00;;;;;10.33;100.00;98677.38;6194128;28;98401;-70
2023/11/09 04:24:47;;;;;;;;;7.00;7.00;;;;;10.39;100.00;98678.34;6224234;28;96430;-70
2023/11/09 04:27:52;;;;;;;;;6.00;5.50;;;;;10.44;100.00;98683.88;6188073;28;98419;-70
2023/11/09 04:30:56;;;;;;;;;8.40;8.40;;;;;10.40;100.00;98677.31;6208964;28;97837;-70
2023/11/09 04:34:09;;;;;;;;;6.00;6.00;;;;;10.45;100.00;98684.72;6212234;28;97462;-70
2023/11/09 04:37:13;;;;;;;;;4.75;4.00;;;;;10.40;100.00;98666.53;6210396;28;97453;-70
2023/11/09 04:40:21;;;;;;;;;5.75;5.00;;;;;10.47;100.00;98669.94;6195069;28;96762;-70
2023/11/09 04:43:26;;;;;;;;;6.40;6.00;;;;;10.48;100.00;98662.69;6177477;28;98383;-70
2023/11/09 04:46:33;;;;;;;;;6.40;6.00;;;;;10.52;100.00;98661.19;6174239;28;97898;-70
2023/11/09 04:49:37;;;;;;;;;6.00;6.00;;;;;10.55;100.00;98658.88;6191839;28;96778;-68
2023/11/09 04:52:44;;;;;;;;;6.00;5.40;;;;;10.59;100.00;98653.84;6176102;28;96727;-68
2023/11/09 04:55:57;;;;;;;;;6.40;6.00;;;;;10.59;100.00;98649.28;6193146;28;96731;-68
2023/11/09 05:06:48;;;;;;;;;5.50;5.50;;;;;10.68;100.00;98653.28;6211782;28;96381;-68
2023/11/09 05:09:11;;;;;;;;;5.00;5.00;;;;;10.80;100.00;98645.22;6212976;28;96655;-67
2023/11/09 05:12:14;;;;;;;;;7.00;7.00;;;;;10.77;100.00;98648.41;6212395;28;96867;-68
2023/11/09 05:15:19;;;;;;;;;4.00;4.00;;;;;10.80;100.00;98643.38;6211339;28;96941;-68
2023/11/09 05:18:22;;;;;;;;;8.50;8.50;;;;;10.81;100.00;98646.88;6207498;28;96476;-67
2023/11/09 05:21:25;;;;;;;;;6.00;6.00;;;;;10.80;100.00;98651.44;6176923;28;98695;-67
2023/11/09 05:24:29;;;;;;;;;5.00;5.00;;;;;10.79;100.00;98654.41;6204889;28;96359;-68
2023/11/09 05:27:32;;;;;;;;;6.75;6.00;;;;;10.81;100.00;98641.50;6195171;28;96871;-68
2023/11/09 05:30:37;;;;;;;;;5.00;4.00;;;;;10.79;100.00;98646.31;6203671;28;96594;-68
2023/11/09 05:33:40;;;;;;;;;5.00;5.00;;;;;10.81;100.00;98644.19;6207683;28;96774;-68
2023/11/09 05:36:44;;;;;;;;;5.25;5.00;;;;;10.78;100.00;98647.34;6190700;28;96888;-68
2023/11/09 05:39:47;;;;;;;;;6.00;5.40;;;;;10.74;100.00;98641.59;6191143;28;96644;-68
2023/11/09 05:42:50;;;;;;;;;4.00;4.00;;;;;10.65;100.00;98647.53;6179132;28;96921;-68
2023/11/09 05:45:55;;;;;;;;;6.00;6.00;;;;;10.60;100.00;98642.00;6191722;28;96765;-68
2023/11/09 05:48:58;;;;;;;;;5.80;5.80;;;;;10.62;100.00;98642.59;6212268;28;96365;-68
2023/11/09 05:52:03;;;;;;;;;6.00;5.60;;;;;10.63;100.00;98642.38;6175423;28;98522;-68
2023/11/09 05:55:07;;;;;;;;;5.00;4.80;;;;;10.77;100.00;98640.31;6209114;28;96289;-68
2023/11/09 05:58:11;;;;;;;;;4.60;4.00;;;;;11.39;100.00;98641.63;6191245;28;97018;-68
2023/11/09 06:01:17;;;;;;;;;5.25;4.25;;;;;12.45;100.00;98644.06;6215524;28;96269;-68
2023/11/09 06:04:20;;;;;;;;;4.25;4.25;;;;;13.56;100.00;98639.88;6214660;28;96486;-68
2023/11/09 06:07:23;;;;;;;;;5.80;5.80;;;;;14.76;100.00;98644.50;6206746;28;96489;-64
2023/11/09 06:10:29;;;;;;;;;7.00;7.00;;;;;15.95;100.00;98645.06;6198202;28;96539;-63
2023/11/09 06:13:33;;;;;;;;;8.00;6.50;;;;;17.07;100.00;98643.66;6211396;28;96431;-65
2023/11/09 06:16:37;;;;;;;;;5.00;5.00;;;;;18.10;94.87;98651.59;6204002;28;97724;-64
2023/11/09 06:19:42;;;;;;;;;5.00;5.00;;;;;18.79;91.82;98646.19;6215463;28;96404;-64
2023/11/09 06:22:45;;;;;;;;;6.00;5.60;;;;;19.56;86.01;98635.59;6216151;28;96300;-63
2023/11/09 06:25:51;;;;;;;;;3.00;3.00;;;;;20.45;80.94;98645.16;6198101;28;96900;-65
2023/11/09 06:28:55;;;;;;;;;6.00;5.00;;;;;21.26;73.37;98633.13;6216702;28;96848;-64
2023/11/09 06:31:59;;;;;;;;;5.00;5.00;;;;;22.26;69.79;98643.50;6215648;28;97629;-65
2023/11/09 06:35:04;;;;;;;;;4.50;4.50;;;;;23.18;63.31;98637.75;6196937;28;96899;-67
2023/11/09 06:38:08;;;;;;;;;3.00;2.20;;;;;23.97;53.32;98636.13;6198036;28;96989;-65
2023/11/09 06:41:11;;;;;;;;;5.40;5.00;;;;;24.66;52.75;98630.94;6213092;28;96374;-65
2023/11/09 06:44:17;;;;;;;;;5.00;4.60;;;;;24.69;50.78;98637.75;6215176;28;96365;-65
2023/11/09 06:47:22;;;;;;;;;2.00;2.00;;;;;23.56;54.56;98630.00;6215313;28;96387;-65
2023/11/09 06:50:25;;;;;;;;;4.00;3.60;;;;;22.39;60.96;98629.78;6209972;28;96421;-65
2023/11/09 06:53:29;;;;;;;;;2.80;2.00;;;;;21.25;65.29;98626.03;6198141;28;97076;-65
2023/11/09 06:56:33;;;;;;;;;4.20;3.20;;;;;20.77;70.72;98624.19;6215173;28;97278;-64
2023/11/09 06:59:37;;;;;;;;;3.80;3.20;;;;;21.24;68.47;98619.72;6215917;28;96288;-65
2023/11/09 07:02:43;;;;;;;;;2.20;2.20;;;;;22.63;60.43;98615.00;6204289;28;96594;-65
2023/11/09 07:05:47;;;;;;;;;4.40;4.00;;;;;24.55;50.48;98624.91;6195969;28;96279;-65
2023/11/09 07:08:51;;;;;;;;;4.00;3.75;;;;;26.49;42.02;98623.06;6214714;28;96113;-65
2023/11/09 07:11:54;;;;;;;;;2.00;2.00;;;;;28.01;35.52;98612.31;6197039;28;97133;-66
2023/11/09 07:14:57;;;;;;;;;4.00;3.00;;;;;29.30;32.24;98627.28;6215576;28;96383;-68
2023/11/09 07:18:04;;;;;;;;;3.00;3.00;;;;;30.40;29.82;98620.06;6178862;28;98455;-69
2023/11/09 07:21:08;;;;;;;;;5.00;4.00;;;;;31.10;27.92;98627.75;6176822;28;97115;-69
2023/11/09 07:24:17;;;;;;;;;4.00;3.00;;;;;31.78;28.72;98622.47;6202357;28;96762;-69
2023/11/09 07:27:21;;;;;;;;;2.00;2.00;;;;;32.61;26.22;98621.63;6213656;28;98418;-69
2023/11/09 07:30:28;;;;;;;;;2.00;2.00;;;;;33.21;24.24;98623.78;6196758;28;98911;-69
2023/11/09 07:33:33;;;;;;;;;2.00;2.00;;;;;33.58;24.00;98621.88;6197549;28;96470;-70
2023/11/09 07:36:36;;;;;;;;;3.00;3.00;;;;;33.92;23.19;98615.13;6195080;28;96698;-69
2023/11/09 07:39:40;;;;;;;;;1.00;1.00;;;;;33.96;21.90;98614.38;6210881;28;97054;-69
2023/11/09 07:42:45;;;;;;;;;2.00;2.00;;;;;34.79;22.68;98615.59;6218178;28;96559;-69
2023/11/09 07:45:49;;;;;;;;;2.00;2.00;;;;;34.65;21.50;98607.06;6196074;28;97795;-69
2023/11/09 07:48:57;;;;;;;;;2.00;1.20;;;;;33.93;21.31;98613.13;6196631;28;96661;-69
2023/11/09 07:52:03;;;;;;;;;2.00;2.00;;;;;35.01;21.79;98602.53;6214959;28;96498;-69
2023/11/09 07:55:08;;;;;;;;;1.00;1.00;;;;;35.22;21.44;98601.88;6195882;28;96723;-69
2023/11/09 07:58:12;;;;;;;;;2.00;1.00;;;;;35.55;20.21;98608.03;6211894;28;96666;-69
2023/11/09 08:01:16;;;;;;;;;1.20;1.20;;;;;35.45;20.29;98594.78;6202561;28;96233;-69
2023/11/09 08:04:21;;;;;;;;;3.00;2.00;;;;;35.73;20.23;98590.50;6210582;28;97094;-69
2023/11/09 08:07:25;;;;;;;;;2.20;2.20;;;;;35.82;20.40;98588.94;6177382;28;97922;-70
2023/11/09 08:10:29;;;;;;;;;1.00;1.00;;;;;35.70;20.16;98594.91;6194716;28;98953;-70
2023/11/09 08:13:33;;;;;;;;;3.00;2.25;;;;;35.47;19.64;98600.81;6213373;28;96416;-70
2023/11/09 08:16:36;;;;;;;;;13.00;11.50;;;;;36.29;19.87;98582.22;6193536;28;97088;-70
2023/11/09 08:19:41;;;;;;;;;11.75;7.00;;;;;36.39;19.40;98583.44;6210724;28;97164;-70
2023/11/09 08:22:46;;;;;;;;;2.00;2.00;;;;;36.19;19.23;98583.03;6211537;28;97418;-70
2023/11/09 08:25:51;;;;;;;;;2.00;2.00;;;;;36.62;18.64;98577.44;6213727;28;97796;-70
2023/11/09 08:28:54;;;;;;;;;3.20;3.20;;;;;36.76;18.85;98571.78;6194186;28;97308;-70
2023/11/09 08:32:02;;;;;;;;;2.60;2.60;;;;;36.85;18.25;98566.56;6210678;28;96851;-70
2023/11/09 08:35:10;;;;;;;;;2.40;2.00;;;;;37.17;18.81;98556.06;6193339;28;98490;-69
2023/11/09 08:38:13;;;;;;;;;3.00;3.00;;;;;37.23;18.77;98565.69;6177034;28;96947;-70
2023/11/09 08:41:21;;;;;;;;;2.40;2.00;;;;;37.48;17.90;98568.41;6211621;28;96958;-70
2023/11/09 08:44:24;;;;;;;;;2.60;2.60;;;;;37.56;18.39;98560.75;6212824;28;96376;-71
2023/11/09 08:47:28;;;;;;;;;2.75;2.00;;;;;37.09;17.67;98550.91;6214297;28;96207;-70
2023/11/09 08:50:34;;;;;;;;;1.00;1.00;;;;;36.75;18.22;98561.78;6214631;28;96224;-70
2023/11/09 08:53:37;;;;;;;;;2.00;2.00;;;;;36.71;17.60;98558.97;6214418;28;96889;-71
2023/11/09 08:56:41;;;;;;;;;2.00;2.00;;;;;36.56;17.80;98553.72;6214406;28;96855;-71
2023/11/09 08:59:44;;;;;;;;;2.25;1.75;;;;;37.06;17.86;98546.84;6212762;28;96329;-71
2023/11/09 09:02:49;;;;;;;;;3.00;2.00;;;;;37.35;17.73;98555.19;6213316;28;96761;-70
2023/11/09 09:05:56;;;;;;;;;2.00;2.00;;;;;36.67;18.10;98549.75;6214278;28;96511;-71
2023/11/09 09:08:59;;;;;;;;;2.60;1.60;;;;;36.38;17.75;98554.56;6214250;28;96381;-71
2023/11/09 09:12:05;;;;;;;;;2.00;2.00;;;;;36.59;18.01;98556.56;6212570;28;96269;-71
2023/11/09 09:15:13;;;;;;;;;1.00;1.00;;;;;35.41;18.46;98539.91;6195888;28;96389;-71
2023/11/09 09:18:16;;;;;;;;;2.00;2.00;;;;;36.02;18.54;98544.47;6213734;28;96299;-71
2023/11/09 09:21:22;;;;;;;;;2.00;2.00;;;;;36.00;18.03;98539.28;6213476;28;96372;-71
2023/11/09 09:24:26;;;;;;;;;1.00;1.00;;;;;35.23;18.46;98536.22;6195963;28;96558;-70
2023/11/09 09:27:29;;;;;;;;;2.00;1.60;;;;;35.30;18.50;98528.63;6178533;28;98385;-71
2023/11/09 09:30:32;;;;;;;;;1.00;1.00;;;;;34.96;19.05;98527.25;6213055;28;96446;-71
2023/11/09 09:33:36;;;;;;;;;1.00;1.00;;;;;34.80;19.31;98518.38;6213613;28;97644;-71
2023/11/09 09:36:41;;;;;;;;;8.80;6.40;;;;;34.41;19.29;98510.47;6213199;28;96765;-67
2023/11/09 09:39:46;;;;;;;;;1.60;1.00;;;;;34.06;19.48;98518.56;6194288;28;96539;-68
2023/11/09 09:42:52;;;;;;;;;2.00;2.00;;;;;33.46;19.90;98507.56;6212788;28;96345;-67
2023/11/09 09:45:58;;;;;;;;;2.00;2.00;;;;;33.51;19.72;98516.41;6213596;28;96346;-67
2023/11/09 09:49:03;;;;;;;;;1.00;1.00;;;;;33.26;20.16;98508.91;6178712;28;96654;-67
2023/11/09 09:52:08;;;;;;;;;3.60;2.60;;;;;33.66;20.40;98500.59;6170112;28;98550;-67
2023/11/09 09:55:11;;;;;;;;;4.60;4.00;;;;;33.53;19.82;98498.44;6197241;28;96228;-67
2023/11/09 09:58:15;;;;;;;;;8.00;6.00;;;;;33.65;19.41;98498.97;6210918;28;96437;-67
2023/11/09 10:01:19;;;;;;;;;2.00;2.00;;;;;32.37;20.48;98504.03;6212463;28;96247;-67
2023/11/09 10:04:24;;;;;;;;;1.00;1.00;;;;;32.34;20.66;98500.00;6185095;28;96642;-67
2023/11/09 10:07:31;;;;;;;;;4.00;3.00;;;;;32.15;20.85;98489.75;6161938;28;96754;-67
2023/11/09 10:10:36;;;;;;;;;1.20;1.00;;;;;31.79;21.14;98482.75;6163316;28;96626;-68
2023/11/09 10:13:45;;;;;;;;;1.00;1.00;;;;;32.12;21.11;98490.50;6162133;28;96992;-66
2023/11/09 10:16:49;;;;;;;;;2.00;2.00;;;;;32.32;20.72;98480.03;6172914;28;97035;-67
2023/11/09 10:19:52;;;;;;;;;2.25;1.25;;;;;32.35;20.52;98479.31;6185762;28;98460;-67
2023/11/09 10:22:58;;;;;;;;;1.00;0.80;;;;;32.41;21.08;98463.03;6186303;28;96784;-67
2023/11/09 10:26:02;;;;;;;;;1.00;1.00;;;;;32.42;21.47;98464.66;6185747;28;97129;-67
2023/11/09 10:29:06;;;;;;;;;2.00;1.00;;;;;31.79;22.16;98457.66;6186098;28;96530;-67
2023/11/09 10:32:19;;;;;;;;;2.00;2.00;;;;;31.64;21.47;98454.97;6153434;28;97187;-68
2023/11/09 10:35:22;;;;;;;;;1.60;1.60;;;;;31.38;21.67;98436.97;6157529;28;96410;-68
2023/11/09 10:38:27;;;;;;;;;2.00;2.00;;;;;31.33;21.51;98439.25;6186397;28;96399;-67
2023/11/09 10:41:32;;;;;;;;;1.00;1.00;;;;;30.70;22.49;98442.34;6187713;28;96379;-67
2023/11/09 10:44:58;;;;;;;;;1.00;1.00;;;;;30.21;23.35;98430.06;6173650;28;96871;-67
2023/11/09 10:48:04;;;;;;;;;2.00;2.00;;;;;29.10;23.97;98418.09;6178596;28;96621;-70
2023/11/09 10:51:09;;;;;;;;;3.00;3.00;;;;;29.36;25.23;98422.41;6157840;28;96419;-70
2023/11/09 10:54:16;;;;;;;;;3.00;2.00;;;;;29.17;24.92;98417.50;6174628;28;96292;-70
2023/11/09 10:57:21;;;;;;;;;2.00;2.00;;;;;29.32;25.68;98422.31;6194187;28;96351;-70
2023/11/09 11:00:31;;;;;;;;;1.00;1.00;;;;;28.68;25.45;98417.69;6193369;28;96356;-66
2023/11/09 11:03:38;;;;;;;;;1.40;1.40;;;;;27.62;26.95;98428.16;6173264;28;98649;-66
2023/11/09 11:06:50;;;;;;;;;1.00;1.00;;;;;27.17;28.16;98425.41;6213700;28;98781;-66
2023/11/09 11:09:57;;;;;;;;;2.00;2.00;;;;;27.00;28.66;98420.03;6180771;28;98508;-66
2023/11/09 11:13:09;;;;;;;;;2.00;2.00;;;;;27.06;28.87;98421.44;6216882;28;96622;-66
2023/11/09 11:16:28;;;;;;;;;1.00;1.00;;;;;27.06;29.74;98425.03;6198019;28;96244;-65
2023/11/09 11:19:55;;;;;;;;;0.80;0.80;;;;;27.47;29.91;98415.75;6215961;28;96353;-66
2023/11/09 11:23:19;;;;;;;;;1.00;0.60;;;;;27.82;28.63;98412.59;6197272;28;96809;-66
2023/11/09 11:26:28;;;;;;;;;1.20;1.00;;;;;28.45;27.04;98405.47;6215864;28;96510;-66
2023/11/09 11:29:37;;;;;;;;;1.00;1.00;;;;;28.67;27.03;98410.53;6196966;28;98648;-66
2023/11/09 11:32:41;;;;;;;;;1.00;1.00;;;;;27.81;27.27;98397.13;6181153;28;96696;-66
2023/11/09 11:35:48;;;;;;;;;1.00;1.00;;;;;27.67;28.86;98400.25;6213707;28;96675;-66
2023/11/09 11:39:10;;;;;;;;;2.00;2.00;;;;;27.48;27.84;98398.00;6215276;28;96260;-66
2023/11/09 11:42:19;;;;;;;;;3.00;3.00;;;;;28.10;28.59;98391.31;6197145;28;99469;-66
2023/11/09 11:45:24;;;;;;;;;2.00;2.00;;;;;28.74;26.64;98384.97;6215346;28;97478;-66
2023/11/09 11:48:30;;;;;;;;;2.00;2.00;;;;;29.20;24.84;98395.38;6215412;28;96312;-66
2023/11/09 11:51:35;;;;;;;;;2.00;2.00;;;;;29.51;26.08;98397.41;6214401;28;96255;-66
2023/11/09 11:54:42;;;;;;;;;5.00;4.00;;;;;29.71;25.90;98387.19;6214922;28;96430;-66
2023/11/09 11:58:04;;;;;;;;;3.00;3.00;;;;;29.88;25.20;98375.69;6218378;28;96349;-61
2023/11/09 12:01:08;;;;;;;;;4.00;4.00;;;;;30.12;23.90;98378.25;6201346;28;97052;-62
2023/11/09 12:04:32;;;;;;;;;2.00;2.00;;;;;30.40;24.37;98369.72;6200119;28;96799;-62
2023/11/09 12:07:43;;;;;;;;;2.20;1.00;;;;;30.30;24.75;98373.09;6218352;28;96347;-61
2023/11/09 12:10:47;;;;;;;;;3.00;2.00;;;;;29.44;26.06;98368.63;6217722;28;96270;-63
2023/11/09 12:13:54;;;;;;;;;4.40;3.00;;;;;27.73;26.93;98359.28;6217144;28;96281;-62
2023/11/09 12:16:57;;;;;;;;;2.40;2.00;;;;;27.02;29.07;98354.94;6199150;28;97839;-62
2023/11/09 12:20:05;;;;;;;;;2.00;1.00;;;;;26.22;29.93;98345.25;6214968;28;98463;-62
2023/11/09 12:23:10;;;;;;;;;3.00;3.00;;;;;25.62;31.66;98353.88;6215715;28;98598;-64
2023/11/09 12:26:18;;;;;;;;;4.00;3.00;;;;;24.67;34.30;98353.34;6199760;28;96642;-62
2023/11/09 12:29:24;;;;;;;;;17.20;12.60;;;;;24.08;37.37;98345.56;6199546;28;96894;-61
2023/11/09 12:32:28;;;;;;;;;1.00;1.00;;;;;23.28;40.98;98344.03;6217832;28;96449;-62
2023/11/09 12:35:33;;;;;;;;;1.40;1.00;;;;;22.62;42.51;98342.22;6215231;28;97768;-61
2023/11/09 12:38:39;;;;;;;;;1.00;1.00;;;;;22.16;47.19;98345.25;6198255;28;99328;-61
2023/11/09 12:41:42;;;;;;;;;1.00;1.00;;;;;21.67;48.95;98326.03;6213809;28;96763;-61
2023/11/09 12:44:47;;;;;;;;;2.00;1.00;;;;;21.46;50.63;98326.44;6196843;28;96680;-62
2023/11/09 12:47:51;;;;;;;;;2.00;2.00;;;;;20.85;54.29;98328.72;6215012;28;96464;-61
2023/11/09 12:50:54;;;;;;;;;3.00;3.00;;;;;20.72;54.77;98320.19;6215302;28;96817;-61
2023/11/09 12:54:00;;;;;;;;;1.00;1.00;;;;;20.38;58.21;98327.09;6180659;28;96108;-62
2023/11/09 12:57:05;;;;;;;;;2.00;1.00;;;;;20.23;57.11;98311.69;6198525;28;96649;-61
2023/11/09 13:00:20;;;;;;;;;1.00;1.00;;;;;20.30;59.68;98318.44;6190384;28;96729;-61
2023/11/09 13:03:24;;;;;;;;;2.00;2.00;;;;;20.18;60.37;98312.56;6190524;28;96308;-61
2023/11/09 13:06:30;;;;;;;;;1.00;1.00;;;;;20.37;58.45;98318.06;6174650;28;96452;-62
2023/11/09 13:09:38;;;;;;;;;4.00;3.00;;;;;20.77;57.41;98313.78;6175742;28;96379;-61
2023/11/09 13:12:44;;;;;;;;;2.40;2.40;;;;;20.67;58.83;98311.25;6194528;28;96291;-62
2023/11/09 13:15:50;;;;;;;;;1.00;1.00;;;;;20.83;60.31;98301.63;6159676;28;96949;-62
2023/11/09 13:18:55;;;;;;;;;3.50;3.50;;;;;20.86;61.52;98298.31;6193943;28;96336;-61
2023/11/09 13:21:59;;;;;;;;;3.00;3.00;;;;;20.69;62.92;98307.09;6193241;28;96452;-61
2023/11/09 13:25:04;;;;;;;;;3.00;2.20;;;;;20.89;62.27;98291.38;6174405;28;98440;-61
2023/11/09 13:28:08;;;;;;;;;3.00;3.00;;;;;21.17;60.57;98282.09;6158867;28;96761;-61
2023/11/09 13:31:19;;;;;;;;;2.60;2.00;;;;;21.25;57.03;98297.03;6181602;28;98543;-62
2023/11/09 13:34:28;;;;;;;;;2.00;2.00;;;;;20.80;60.13;98287.72;6199959;28;96268;-61
2023/11/09 13:37:33;;;;;;;;;3.00;2.40;;;;;20.89;61.31;98286.72;6215041;28;97040;-61
2023/11/09 13:40:38;;;;;;;;;3.00;3.00;;;;;20.96;59.33;98283.59;6198760;28;96658;-61
2023/11/09 13:43:49;;;;;;;;;4.00;3.00;;;;;21.16;57.09;98292.25;6217403;28;96350;-61
2023/11/09 13:46:59;;;;;;;;;3.00;3.00;;;;;21.16;57.39;98284.00;6214604;28;96663;-61
2023/11/09 13:50:04;;;;;;;;;2.75;2.75;;;;;21.01;57.52;98284.28;6217275;28;96286;-61
2023/11/09 13:53:23;;;;;;;;;2.00;2.00;;;;;21.05;58.60;98282.59;6199590;28;96522;-61
2023/11/09 13:59:59;;;;;;;;;1.00;1.00;;;;;20.71;56.45;98272.00;6196902;28;98388;-61
2023/11/09 14:03:05;;;;;;;;;2.00;2.00;;;;;20.30;61.13;98266.44;6204311;28;96256;-61
2023/11/09 14:06:13;;;;;;;;;2.00;2.00;;;;;20.00;62.45;98255.13;6207654;28;96743;-62
2023/11/09 14:09:33;;;;;;;;;2.00;1.00;;;;;19.93;69.45;98262.91;6190138;28;96364;-65
2023/11/09 14:12:37;;;;;;;;;1.25;1.25;;;;;19.60;68.20;98254.63;6214563;28;96575;-65
2023/11/09 14:15:49;;;;;;;;;2.00;2.00;;;;;19.42;71.92;98263.63;6189520;28;97004;-65
2023/11/09 14:18:59;;;;;;;;;2.00;2.00;;;;;19.19;77.15;98262.56;6214980;28;96887;-63
2023/11/09 14:22:04;;;;;;;;;2.00;2.00;;;;;18.83;73.80;98253.97;6213658;28;96677;-61
2023/11/09 14:25:14;;;;;;;;;1.80;1.80;;;;;18.46;74.16;98249.16;6214375;28;97502;-62
2023/11/09 14:28:21;;;;;;;;;2.00;2.00;;;;;18.29;76.90;98245.22;6216548;28;96350;-62
2023/11/09 14:31:24;;;;;;;;;2.00;2.00;;;;;18.14;79.20;98249.72;6209755;28;96351;-61
2023/11/09 14:34:30;;;;;;;;;3.00;3.00;;;;;17.90;78.33;98245.28;6200692;28;98461;-61
2023/11/09 14:37:36;;;;;;;;;2.00;2.00;;;;;17.78;80.94;98248.38;6202108;28;97547;-64